sensor_id;sensor_type;location;lat;lon;timestamp;pressure;altitude;pressure_sealevel;temperature;humidity
9721;BME280;4899;42.644;23.366;2023-02-04T00:01:23;94019.38;;;1.08;100.00
9721;BME280;4899;42.644;23.366;2023-02-04T00:03:54;94011.25;;;0.96;100.00
9721;BME280;4899;42.644;23.366;2023-02-04T00:06:20;93997.34;;;0.88;100.00
9721;BME280;4899;42.644;23.366;2023-02-04T00:08:45;94006.94;;;0.86;100.00
9721;BME280;4899;42.644;23.366;2023-02-04T00:11:18;94014.78;;;0.85;100.00
9721;BME280;4899;42.644;23.366;2023-02-04T00:13:44;93980.34;;;0.69;100.00
9721;BME280;4899;42.644;23.366;2023-02-04T00:16:09;94003.88;;;0.74;100.00
9721;BME280;4899;42.644;23.366;2023-02-04T00:18:37;94000.38;;;0.75;100.00
9721;BME280;4899;42.644;23.366;2023-02-04T00:21:03;94001.34;;;0.74;100.00
9721;BME280;4899;42.644;23.366;2023-02-04T00:23:28;93988.19;;;0.67;100.00
9721;BME280;4899;42.644;23.366;2023-02-04T00:26:01;93988.19;;;0.67;100.00
9721;BME280;4899;42.644;23.366;2023-02-04T00:28:26;93997.81;;;0.70;100.00
9721;BME280;4899;42.644;23.366;2023-02-04T00:30:52;93993.25;;;0.67;100.00
9721;BME280;4899;42.644;23.366;2023-02-04T00:33:17;93981.59;;;0.61;100.00
9721;BME280;4899;42.644;23.366;2023-02-04T00:35:48;93977.59;;;0.90;100.00
9721;BME280;4899;42.644;23.366;2023-02-04T00:38:14;93982.16;;;0.93;100.00
9721;BME280;4899;42.644;23.366;2023-02-04T00:40:39;93992.81;;;1.01;100.00
9721;BME280;4899;42.644;23.366;2023-02-04T00:43:05;93990.75;;;0.98;100.00
9721;BME280;4899;42.644;23.366;2023-02-04T00:45:30;93990.00;;;0.97;100.00
9721;BME280;4899;42.644;23.366;2023-02-04T00:47:56;93986.22;;;1.00;100.00
9721;BME280;4899;42.644;23.366;2023-02-04T00:50:22;93983.44;;;1.01;100.00
9721;BME280;4899;42.644;23.366;2023-02-04T00:52:47;93977.63;;;1.01;100.00
9721;BME280;4899;42.644;23.366;2023-02-04T00:55:13;93983.69;;;1.05;100.00
9721;BME280;4899;42.644;23.366;2023-02-04T00:57:43;93974.81;;;1.02;100.00
9721;BME280;4899;42.644;23.366;2023-02-04T01:00:11;93975.06;;;0.90;100.00
9721;BME280;4899;42.644;23.366;2023-02-04T01:02:37;93968.47;;;0.95;100.00
9721;BME280;4899;42.644;23.366;2023-02-04T01:05:07;93942.66;;;0.92;100.00
9721;BME280;4899;42.644;23.366;2023-02-04T01:07:32;93966.97;;;1.04;100.00
9721;BME280;4899;42.644;23.366;2023-02-04T01:09:58;93959.13;;;1.00;100.00
9721;BME280;4899;42.644;23.366;2023-02-04T01:12:24;93953.81;;;1.02;100.00
9721;BME280;4899;42.644;23.366;2023-02-04T01:14:52;93939.63;;;1.01;100.00
9721;BME280;4899;42.644;23.366;2023-02-04T01:17:17;93943.69;;;1.02;100.00
9721;BME280;4899;42.644;23.366;2023-02-04T01:19:45;93928.97;;;0.99;100.00
9721;BME280;4899;42.644;23.366;2023-02-04T01:22:10;93912.28;;;0.92;100.00
9721;BME280;4899;42.644;23.366;2023-02-04T01:24:36;93906.19;;;0.93;100.00
9721;BME280;4899;42.644;23.366;2023-02-04T01:27:01;93919.63;;;1.04;100.00
9721;BME280;4899;42.644;23.366;2023-02-04T01:29:27;93911.78;;;1.01;100.00
9721;BME280;4899;42.644;23.366;2023-02-04T01:31:52;93910.75;;;0.97;100.00
9721;BME280;4899;42.644;23.366;2023-02-04T01:34:20;93920.88;;;0.97;100.00
9721;BME280;4899;42.644;23.366;2023-02-04T01:36:46;93899.09;;;0.96;100.00
9721;BME280;4899;42.644;23.366;2023-02-04T01:39:11;93902.13;;;0.98;100.00
9721;BME280;4899;42.644;23.366;2023-02-04T01:41:38;93905.69;;;0.97;100.00
9721;BME280;4899;42.644;23.366;2023-02-04T01:44:04;93901.88;;;0.94;100.00
9721;BME280;4899;42.644;23.366;2023-02-04T01:46:29;93887.72;;;0.93;100.00
9721;BME280;4899;42.644;23.366;2023-02-04T01:49:03;93886.69;;;0.99;100.00
9721;BME280;4899;42.644;23.366;2023-02-04T01:51:29;93885.44;;;0.97;100.00
9721;BME280;4899;42.644;23.366;2023-02-04T01:53:56;93891.00;;;0.99;100.00
9721;BME280;4899;42.644;23.366;2023-02-04T01:56:24;93888.47;;;0.99;100.00
9721;BME280;4899;42.644;23.366;2023-02-04T01:58:54;93892.00;;;0.98;100.00
9721;BME280;4899;42.644;23.366;2023-02-04T02:04:03;93845.97;;;0.80;100.00
9721;BME280;4899;42.644;23.366;2023-02-04T02:06:29;93874.53;;;1.06;100.00
9721;BME280;4899;42.644;23.366;2023-02-04T02:08:55;93879.34;;;1.08;100.00
9721;BME280;4899;42.644;23.366;2023-02-04T02:11:23;93862.66;;;0.86;100.00
9721;BME280;4899;42.644;23.366;2023-02-04T02:13:51;93883.41;;;1.09;100.00
9721;BME280;4899;42.644;23.366;2023-02-04T02:16:17;93864.66;;;1.15;100.00
9721;BME280;4899;42.644;23.366;2023-02-04T02:18:42;93860.16;;;0.81;100.00
9721;BME280;4899;42.644;23.366;2023-02-04T02:21:09;93852.03;;;0.64;100.00
9721;BME280;4899;42.644;23.366;2023-02-04T02:23:55;93856.34;;;0.69;100.00
9721;BME280;4899;42.644;23.366;2023-02-04T02:26:32;93849.50;;;0.69;100.00
9721;BME280;4899;42.644;23.366;2023-02-04T02:28:57;93830.25;;;0.73;100.00
9721;BME280;4899;42.644;23.366;2023-02-04T02:31:23;93840.38;;;0.73;100.00
9721;BME280;4899;42.644;23.366;2023-02-04T02:33:48;93833.81;;;0.72;100.00
9721;BME280;4899;42.644;23.366;2023-02-04T02:36:14;93809.03;;;0.69;100.00
9721;BME280;4899;42.644;23.366;2023-02-04T02:38:40;93788.00;;;0.69;100.00
9721;BME280;4899;42.644;23.366;2023-02-04T02:41:06;93780.69;;;0.62;100.00
9721;BME280;4899;42.644;23.366;2023-02-04T02:43:34;93783.75;;;0.59;100.00
9721;BME280;4899;42.644;23.366;2023-02-04T02:46:02;93788.56;;;0.50;100.00
9721;BME280;4899;42.644;23.366;2023-02-04T02:48:27;93768.56;;;0.49;100.00
9721;BME280;4899;42.644;23.366;2023-02-04T02:50:53;93767.81;;;0.38;100.00
9721;BME280;4899;42.644;23.366;2023-02-04T02:53:19;93782.72;;;0.40;100.00
9721;BME280;4899;42.644;23.366;2023-02-04T02:55:45;93779.97;;;0.36;100.00
9721;BME280;4899;42.644;23.366;2023-02-04T02:58:35;93786.53;;;0.22;100.00
9721;BME280;4899;42.644;23.366;2023-02-04T03:01:07;93761.50;;;0.20;100.00
9721;BME280;4899;42.644;23.366;2023-02-04T03:03:39;93774.91;;;0.16;100.00
9721;BME280;4899;42.644;23.366;2023-02-04T03:08:35;93784.00;;;0.22;100.00
9721;BME280;4899;42.644;23.366;2023-02-04T03:11:01;93768.59;;;0.28;100.00
9721;BME280;4899;42.644;23.366;2023-02-04T03:13:27;93779.19;;;0.36;100.00
9721;BME280;4899;42.644;23.366;2023-02-04T03:15:54;93766.81;;;0.34;100.00
9721;BME280;4899;42.644;23.366;2023-02-04T03:18:21;93785.00;;;0.46;100.00
9721;BME280;4899;42.644;23.366;2023-02-04T03:20:47;93799.94;;;0.53;100.00
9721;BME280;4899;42.644;23.366;2023-02-04T03:23:16;93793.84;;;0.59;100.00
9721;BME280;4899;42.644;23.366;2023-02-04T03:25:42;93779.94;;;0.67;100.00
9721;BME280;4899;42.644;23.366;2023-02-04T03:28:08;93792.56;;;0.72;100.00
9721;BME280;4899;42.644;23.366;2023-02-04T03:30:34;93767.00;;;0.68;100.00
9721;BME280;4899;42.644;23.366;2023-02-04T03:32:59;93777.13;;;0.73;100.00
9721;BME280;4899;42.644;23.366;2023-02-04T03:35:27;93767.25;;;0.72;100.00
9721;BME280;4899;42.644;23.366;2023-02-04T03:37:52;93773.06;;;0.72;100.00
9721;BME280;4899;42.644;23.366;2023-02-04T03:40:18;93775.59;;;0.82;100.00
9721;BME280;4899;42.644;23.366;2023-02-04T03:42:45;93769.28;;;0.80;100.00
9721;BME280;4899;42.644;23.366;2023-02-04T03:45:10;93771.06;;;0.79;100.00
9721;BME280;4899;42.644;23.366;2023-02-04T03:47:36;93766.75;;;0.85;100.00
9721;BME280;4899;42.644;23.366;2023-02-04T03:50:04;93753.34;;;0.79;100.00
9721;BME280;4899;42.644;23.366;2023-02-04T03:52:29;93740.94;;;0.78;100.00
9721;BME280;4899;42.644;23.366;2023-02-04T03:54:55;93738.66;;;0.71;100.00
9721;BME280;4899;42.644;23.366;2023-02-04T03:57:22;93745.00;;;0.79;100.00
9721;BME280;4899;42.644;23.366;2023-02-04T03:59:48;93737.13;;;0.85;100.00
9721;BME280;4899;42.644;23.366;2023-02-04T04:02:13;93714.84;;;0.82;100.00
9721;BME280;4899;42.644;23.366;2023-02-04T04:04:42;93717.38;;;0.87;100.00
9721;BME280;4899;42.644;23.366;2023-02-04T04:07:07;93695.63;;;0.81;100.00
9721;BME280;4899;42.644;23.366;2023-02-04T04:09:33;93695.31;;;0.93;100.00
9721;BME280;4899;42.644;23.366;2023-02-04T04:11:58;93691.75;;;0.99;100.00
9721;BME280;4899;42.644;23.366;2023-02-04T04:14:25;93685.91;;;0.99;100.00
9721;BME280;4899;42.644;23.366;2023-02-04T04:16:50;93688.44;;;0.99;100.00
9721;BME280;4899;42.644;23.366;2023-02-04T04:19:23;93686.91;;;1.08;100.00
9721;BME280;4899;42.644;23.366;2023-02-04T04:21:49;93685.09;;;1.13;100.00
9721;BME280;4899;42.644;23.366;2023-02-04T04:24:14;93687.38;;;1.15;100.00
9721;BME280;4899;42.644;23.366;2023-02-04T04:26:45;93687.41;;;1.10;100.00
9721;BME280;4899;42.644;23.366;2023-02-04T04:29:11;93688.47;;;1.04;100.00
9721;BME280;4899;42.644;23.366;2023-02-04T04:31:36;93711.19;;;1.14;100.00
9721;BME280;4899;42.644;23.366;2023-02-04T04:34:10;93706.16;;;1.09;100.00
9721;BME280;4899;42.644;23.366;2023-02-04T04:36:36;93698.84;;;1.02;100.00
9721;BME280;4899;42.644;23.366;2023-02-04T04:39:01;93708.22;;;0.97;100.00
9721;BME280;4899;42.644;23.366;2023-02-04T04:41:27;93716.81;;;1.01;100.00
9721;BME280;4899;42.644;23.366;2023-02-04T04:43:53;93719.34;;;0.96;100.00
9721;BME280;4899;42.644;23.366;2023-02-04T04:46:18;93709.72;;;1.03;100.00
9721;BME280;4899;42.644;23.366;2023-02-04T04:48:44;93726.69;;;1.02;100.00
9721;BME280;4899;42.644;23.366;2023-02-04T04:51:09;93729.19;;;1.07;100.00
9721;BME280;4899;42.644;23.366;2023-02-04T04:53:35;93736.28;;;1.10;100.00
9721;BME280;4899;42.644;23.366;2023-02-04T04:56:00;93725.13;;;1.11;100.00
9721;BME280;4899;42.644;23.366;2023-02-04T04:58:26;93723.88;;;1.09;100.00
9721;BME280;4899;42.644;23.366;2023-02-04T05:00:51;93720.56;;;1.13;100.00
9721;BME280;4899;42.644;23.366;2023-02-04T05:03:17;93708.19;;;1.07;100.00
9721;BME280;4899;42.644;23.366;2023-02-04T05:05:42;93723.84;;;1.14;100.00
9721;BME280;4899;42.644;23.366;2023-02-04T05:08:08;93721.28;;;1.19;100.00
9721;BME280;4899;42.644;23.366;2023-02-04T05:10:39;93710.69;;;1.12;100.00
9721;BME280;4899;42.644;23.366;2023-02-04T05:13:04;93734.47;;;1.16;100.00
9721;BME280;4899;42.644;23.366;2023-02-04T05:15:30;93726.63;;;1.17;100.00
9721;BME280;4899;42.644;23.366;2023-02-04T05:17:55;93721.28;;;1.19;100.00
9721;BME280;4899;42.644;23.366;2023-02-04T05:20:22;93724.34;;;1.16;100.00
9721;BME280;4899;42.644;23.366;2023-02-04T05:22:48;93742.31;;;1.19;100.00
9721;BME280;4899;42.644;23.366;2023-02-04T05:25:14;93747.59;;;1.23;100.00
9721;BME280;4899;42.644;23.366;2023-02-04T05:27:42;93752.69;;;1.18;100.00
9721;BME280;4899;42.644;23.366;2023-02-04T05:30:10;93755.25;;;1.13;100.00
9721;BME280;4899;42.644;23.366;2023-02-04T05:32:36;93763.63;;;1.08;100.00
9721;BME280;4899;42.644;23.366;2023-02-04T05:35:02;93761.38;;;1.07;100.00
9721;BME280;4899;42.644;23.366;2023-02-04T05:37:27;93776.06;;;1.05;100.00
9721;BME280;4899;42.644;23.366;2023-02-04T05:39:52;93763.91;;;1.07;100.00
9721;BME280;4899;42.644;23.366;2023-02-04T05:42:26;93750.66;;;1.25;100.00
9721;BME280;4899;42.644;23.366;2023-02-04T05:44:51;93789.00;;;1.63;100.00
9721;BME280;4899;42.644;23.366;2023-02-04T05:47:17;93794.22;;;1.81;100.00
9721;BME280;4899;42.644;23.366;2023-02-04T05:49:45;93816.59;;;2.13;100.00
9721;BME280;4899;42.644;23.366;2023-02-04T05:52:11;93812.31;;;2.48;100.00
9721;BME280;4899;42.644;23.366;2023-02-04T05:54:36;93808.22;;;2.52;100.00
9721;BME280;4899;42.644;23.366;2023-02-04T05:57:03;93804.44;;;2.50;100.00
9721;BME280;4899;42.644;23.366;2023-02-04T05:59:28;93797.16;;;2.38;100.00
9721;BME280;4899;42.644;23.366;2023-02-04T06:01:54;93766.66;;;2.43;100.00
9721;BME280;4899;42.644;23.366;2023-02-04T06:04:20;93764.59;;;2.50;100.00
9721;BME280;4899;42.644;23.366;2023-02-04T06:06:45;93774.94;;;2.54;100.00
9721;BME280;4899;42.644;23.366;2023-02-04T06:09:11;93757.66;;;2.56;100.00
9721;BME280;4899;42.644;23.366;2023-02-04T06:11:37;93778.94;;;2.60;100.00
9721;BME280;4899;42.644;23.366;2023-02-04T06:14:03;93796.34;;;2.71;100.00
9721;BME280;4899;42.644;23.366;2023-02-04T06:16:28;93783.81;;;2.85;100.00
9721;BME280;4899;42.644;23.366;2023-02-04T06:18:55;93763.75;;;2.84;100.00
9721;BME280;4899;42.644;23.366;2023-02-04T06:21:20;93778.41;;;2.92;100.00
9721;BME280;4899;42.644;23.366;2023-02-04T06:23:46;93789.50;;;3.01;100.00
9721;BME280;4899;42.644;23.366;2023-02-04T06:26:13;93788.63;;;3.11;100.00
9721;BME280;4899;42.644;23.366;2023-02-04T06:28:39;93830.47;;;3.18;100.00
9721;BME280;4899;42.644;23.366;2023-02-04T06:31:04;93829.50;;;3.14;100.00
9721;BME280;4899;42.644;23.366;2023-02-04T06:33:30;93793.16;;;3.14;100.00
9721;BME280;4899;42.644;23.366;2023-02-04T06:35:55;93792.41;;;3.13;100.00
9721;BME280;4899;42.644;23.366;2023-02-04T06:38:23;93784.19;;;3.21;100.00
9721;BME280;4899;42.644;23.366;2023-02-04T06:40:48;93795.34;;;3.25;100.00
9721;BME280;4899;42.644;23.366;2023-02-04T06:43:17;93789.84;;;3.37;100.00
9721;BME280;4899;42.644;23.366;2023-02-04T06:45:45;93780.78;;;3.31;100.00
9721;BME280;4899;42.644;23.366;2023-02-04T06:48:11;93781.53;;;3.31;100.00
9721;BME280;4899;42.644;23.366;2023-02-04T06:50:37;93798.38;;;3.27;100.00
9721;BME280;4899;42.644;23.366;2023-02-04T06:53:03;93781.06;;;3.29;100.00
9721;BME280;4899;42.644;23.366;2023-02-04T06:55:28;93795.22;;;3.35;100.00
9721;BME280;4899;42.644;23.366;2023-02-04T06:57:54;93796.94;;;3.40;100.00
9721;BME280;4899;42.644;23.366;2023-02-04T07:00:25;93783.97;;;3.42;100.00
9721;BME280;4899;42.644;23.366;2023-02-04T07:02:50;93772.16;;;3.51;100.00
9721;BME280;4899;42.644;23.366;2023-02-04T07:05:17;93790.09;;;3.59;100.00
9721;BME280;4899;42.644;23.366;2023-02-04T07:07:42;93808.31;;;3.66;100.00
9721;BME280;4899;42.644;23.366;2023-02-04T07:10:08;93757.66;;;3.70;100.00
9721;BME280;4899;42.644;23.366;2023-02-04T07:12:34;93783.06;;;3.75;100.00
9721;BME280;4899;42.644;23.366;2023-02-04T07:14:59;93775.56;;;3.84;100.00
9721;BME280;4899;42.644;23.366;2023-02-04T07:17:24;93770.25;;;3.80;100.00
9721;BME280;4899;42.644;23.366;2023-02-04T07:19:50;93759.53;;;3.83;100.00
9721;BME280;4899;42.644;23.366;2023-02-04T07:22:16;93794.66;;;3.81;100.00
9721;BME280;4899;42.644;23.366;2023-02-04T07:24:41;93789.44;;;3.91;100.00
9721;BME280;4899;42.644;23.366;2023-02-04T07:27:11;93770.31;;;3.94;100.00
9721;BME280;4899;42.644;23.366;2023-02-04T07:29:37;93761.94;;;3.93;100.00
9721;BME280;4899;42.644;23.366;2023-02-04T07:32:02;93757.94;;;4.06;100.00
9721;BME280;4899;42.644;23.366;2023-02-04T07:34:28;93746.53;;;4.04;100.00
9721;BME280;4899;42.644;23.366;2023-02-04T07:36:53;93761.56;;;4.19;100.00
9721;BME280;4899;42.644;23.366;2023-02-04T07:39:19;93765.97;;;4.32;100.00
9721;BME280;4899;42.644;23.366;2023-02-04T07:41:44;93768.13;;;4.39;100.00
9721;BME280;4899;42.644;23.366;2023-02-04T07:44:10;93739.06;;;4.58;100.00
9721;BME280;4899;42.644;23.366;2023-02-04T07:46:35;93756.78;;;4.63;100.00
9721;BME280;4899;42.644;23.366;2023-02-04T07:49:05;93766.03;;;4.59;100.00
9721;BME280;4899;42.644;23.366;2023-02-04T07:51:30;93764.44;;;4.63;100.00
9721;BME280;4899;42.644;23.366;2023-02-04T07:53:56;93759.84;;;4.79;100.00
9721;BME280;4899;42.644;23.366;2023-02-04T07:56:28;93751.53;;;4.74;100.00
9721;BME280;4899;42.644;23.366;2023-02-04T07:58:54;93749.09;;;4.82;100.00
9721;BME280;4899;42.644;23.366;2023-02-04T08:01:19;93758.13;;;4.88;100.00
9721;BME280;4899;42.644;23.366;2023-02-04T08:03:45;93829.81;;;4.68;100.00
9721;BME280;4899;42.644;23.366;2023-02-04T08:06:17;93767.34;;;4.71;100.00
9721;BME280;4899;42.644;23.366;2023-02-04T08:08:42;93771.69;;;4.70;100.00
9721;BME280;4899;42.644;23.366;2023-02-04T08:11:08;93766.03;;;4.59;100.00
9721;BME280;4899;42.644;23.366;2023-02-04T08:13:35;93782.91;;;4.55;100.00
9721;BME280;4899;42.644;23.366;2023-02-04T08:16:01;93763.47;;;4.59;100.00
9721;BME280;4899;42.644;23.366;2023-02-04T08:18:26;93785.53;;;4.50;100.00
9721;BME280;4899;42.644;23.366;2023-02-04T08:20:52;93802.75;;;4.40;100.00
9721;BME280;4899;42.644;23.366;2023-02-04T08:23:19;93784.09;;;4.44;100.00
9721;BME280;4899;42.644;23.366;2023-02-04T08:25:45;93790.28;;;4.38;100.00
9721;BME280;4899;42.644;23.366;2023-02-04T08:28:10;93762.22;;;4.43;100.00
9721;BME280;4899;42.644;23.366;2023-02-04T08:30:37;93767.38;;;4.38;100.00
9721;BME280;4899;42.644;23.366;2023-02-04T08:33:03;93761.44;;;4.43;100.00
9721;BME280;4899;42.644;23.366;2023-02-04T08:35:28;93747.34;;;4.50;100.00
9721;BME280;4899;42.644;23.366;2023-02-04T08:37:56;93734.53;;;4.55;100.00
9721;BME280;4899;42.644;23.366;2023-02-04T08:40:21;93741.41;;;4.69;100.00
9721;BME280;4899;42.644;23.366;2023-02-04T08:42:47;93744.94;;;4.73;100.00
9721;BME280;4899;42.644;23.366;2023-02-04T08:45:12;93749.63;;;4.66;100.00
9721;BME280;4899;42.644;23.366;2023-02-04T08:47:38;93745.88;;;4.77;100.00
9721;BME280;4899;42.644;23.366;2023-02-04T08:50:03;93754.16;;;4.69;100.00
9721;BME280;4899;42.644;23.366;2023-02-04T08:52:29;93763.59;;;4.68;100.00
9721;BME280;4899;42.644;23.366;2023-02-04T08:54:54;93766.25;;;4.44;100.00
9721;BME280;4899;42.644;23.366;2023-02-04T08:57:21;93759.19;;;4.41;100.00
9721;BME280;4899;42.644;23.366;2023-02-04T08:59:46;93750.16;;;4.49;100.00
9721;BME280;4899;42.644;23.366;2023-02-04T09:02:11;93766.16;;;4.36;100.00
9721;BME280;4899;42.644;23.366;2023-02-04T09:04:39;93757.09;;;4.29;100.00
9721;BME280;4899;42.644;23.366;2023-02-04T09:07:04;93749.16;;;4.31;100.00
9721;BME280;4899;42.644;23.366;2023-02-04T09:09:30;93739.38;;;4.38;100.00
9721;BME280;4899;42.644;23.366;2023-02-04T09:11:56;93735.66;;;4.49;100.00
9721;BME280;4899;42.644;23.366;2023-02-04T09:14:22;93745.09;;;4.62;100.00
9721;BME280;4899;42.644;23.366;2023-02-04T09:16:47;93726.25;;;4.77;100.00
9721;BME280;4899;42.644;23.366;2023-02-04T09:19:14;93752.28;;;4.88;100.00
9721;BME280;4899;42.644;23.366;2023-02-04T09:21:41;93746.72;;;4.86;100.00
9721;BME280;4899;42.644;23.366;2023-02-04T09:24:06;93744.28;;;5.08;100.00
9721;BME280;4899;42.644;23.366;2023-02-04T09:26:33;93739.94;;;4.95;100.00
9721;BME280;4899;42.644;23.366;2023-02-04T09:28:59;93725.78;;;4.89;100.00
9721;BME280;4899;42.644;23.366;2023-02-04T09:31:24;93743.81;;;5.06;99.62
9721;BME280;4899;42.644;23.366;2023-02-04T09:33:57;93715.38;;;5.13;100.00
9721;BME280;4899;42.644;23.366;2023-02-04T09:36:24;93733.63;;;5.06;100.00
9721;BME280;4899;42.644;23.366;2023-02-04T09:38:52;93720.88;;;5.06;100.00
9721;BME280;4899;42.644;23.366;2023-02-04T09:41:19;93746.81;;;4.81;100.00
9721;BME280;4899;42.644;23.366;2023-02-04T09:43:45;93744.31;;;4.48;100.00
9721;BME280;4899;42.644;23.366;2023-02-04T09:46:21;93761.25;;;4.39;100.00
9721;BME280;4899;42.644;23.366;2023-02-04T09:48:48;93717.19;;;4.25;100.00
9721;BME280;4899;42.644;23.366;2023-02-04T09:51:18;93732.31;;;4.03;100.00
9721;BME280;4899;42.644;23.366;2023-02-04T09:53:45;93703.69;;;4.11;100.00
9721;BME280;4899;42.644;23.366;2023-02-04T09:56:11;93711.28;;;4.29;100.00
9721;BME280;4899;42.644;23.366;2023-02-04T09:58:39;93711.84;;;4.26;100.00
9721;BME280;4899;42.644;23.366;2023-02-04T10:01:17;93717.91;;;4.12;100.00
9721;BME280;4899;42.644;23.366;2023-02-04T10:03:44;93729.75;;;4.03;100.00
9721;BME280;4899;42.644;23.366;2023-02-04T10:06:20;93693.31;;;4.21;100.00
9721;BME280;4899;42.644;23.366;2023-02-04T10:08:49;93688.16;;;4.26;100.00
9721;BME280;4899;42.644;23.366;2023-02-04T10:11:17;93701.66;;;4.40;100.00
9721;BME280;4899;42.644;23.366;2023-02-04T10:13:46;93686.28;;;4.31;100.00
9721;BME280;4899;42.644;23.366;2023-02-04T10:16:19;93708.63;;;4.35;100.00
9721;BME280;4899;42.644;23.366;2023-02-04T10:18:46;93680.44;;;4.45;100.00
9721;BME280;4899;42.644;23.366;2023-02-04T10:21:15;93675.72;;;4.38;100.00
9721;BME280;4899;42.644;23.366;2023-02-04T10:23:42;93717.75;;;4.22;100.00
9721;BME280;4899;42.644;23.366;2023-02-04T10:26:12;93703.91;;;4.28;100.00
9721;BME280;4899;42.644;23.366;2023-02-04T10:28:38;93690.91;;;4.29;100.00
9721;BME280;4899;42.644;23.366;2023-02-04T10:31:28;93682.63;;;4.38;100.00
9721;BME280;4899;42.644;23.366;2023-02-04T10:34:16;93694.53;;;4.56;100.00
9721;BME280;4899;42.644;23.366;2023-02-04T10:36:44;93667.06;;;4.67;100.00
9721;BME280;4899;42.644;23.366;2023-02-04T10:39:17;93729.44;;;4.69;100.00
9721;BME280;4899;42.644;23.366;2023-02-04T10:41:48;93690.09;;;4.48;100.00
9721;BME280;4899;42.644;23.366;2023-02-04T10:44:16;93675.78;;;4.19;100.00
9721;BME280;4899;42.644;23.366;2023-02-04T10:46:43;93678.47;;;4.28;100.00
9721;BME280;4899;42.644;23.366;2023-02-04T10:49:18;93667.00;;;4.12;100.00
9721;BME280;4899;42.644;23.366;2023-02-04T10:51:44;93671.06;;;4.13;100.00
9721;BME280;4899;42.644;23.366;2023-02-04T10:54:11;93674.97;;;3.91;100.00
9721;BME280;4899;42.644;23.366;2023-02-04T10:59:44;93708.75;;;3.78;100.00
9721;BME280;4899;42.644;23.366;2023-02-04T11:02:43;93657.63;;;3.93;100.00
9721;BME280;4899;42.644;23.366;2023-02-04T11:05:19;93649.84;;;4.04;100.00
9721;BME280;4899;42.644;23.366;2023-02-04T11:07:46;93640.16;;;4.06;100.00
9721;BME280;4899;42.644;23.366;2023-02-04T11:10:21;93647.50;;;4.07;100.00
9721;BME280;4899;42.644;23.366;2023-02-04T11:18:05;93643.97;;;4.49;100.00
9721;BME280;4899;42.644;23.366;2023-02-04T11:20:34;93634.75;;;4.53;100.00
9721;BME280;4899;42.644;23.366;2023-02-04T11:26:04;93632.94;;;4.68;100.00
9721;BME280;4899;42.644;23.366;2023-02-04T11:28:43;93663.22;;;4.69;100.00
9721;BME280;4899;42.644;23.366;2023-02-04T11:31:22;93631.88;;;4.69;100.00
9721;BME280;4899;42.644;23.366;2023-02-04T11:37:04;93649.63;;;5.01;100.00
9721;BME280;4899;42.644;23.366;2023-02-04T11:39:40;93637.16;;;4.86;100.00
9721;BME280;4899;42.644;23.366;2023-02-04T11:42:40;93652.25;;;4.69;100.00
9721;BME280;4899;42.644;23.366;2023-02-04T11:45:26;93645.41;;;4.55;100.00
9721;BME280;4899;42.644;23.366;2023-02-04T11:47:52;93654.34;;;4.53;100.00
9721;BME280;4899;42.644;23.366;2023-02-04T11:50:23;93661.34;;;4.47;100.00
9721;BME280;4899;42.644;23.366;2023-02-04T11:53:01;93642.34;;;4.40;100.00
9721;BME280;4899;42.644;23.366;2023-02-04T11:55:29;93667.47;;;4.60;100.00
9721;BME280;4899;42.644;23.366;2023-02-04T11:57:56;93642.66;;;4.52;100.00
9721;BME280;4899;42.644;23.366;2023-02-04T12:00:30;93636.03;;;4.37;100.00
9721;BME280;4899;42.644;23.366;2023-02-04T12:03:02;93660.59;;;4.47;100.00
9721;BME280;4899;42.644;23.366;2023-02-04T12:05:41;93649.06;;;4.36;100.00
9721;BME280;4899;42.644;23.366;2023-02-04T12:08:26;93641.78;;;4.29;100.00
9721;BME280;4899;42.644;23.366;2023-02-04T12:10:58;93640.06;;;4.11;100.00
9721;BME280;4899;42.644;23.366;2023-02-04T12:13:25;93627.91;;;4.08;100.00
9721;BME280;4899;42.644;23.366;2023-02-04T12:15:58;93635.00;;;3.78;100.00
9721;BME280;4899;42.644;23.366;2023-02-04T12:18:25;93645.56;;;3.85;100.00
9721;BME280;4899;42.644;23.366;2023-02-04T12:20:55;93635.31;;;3.71;100.00
9721;BME280;4899;42.644;23.366;2023-02-04T12:23:23;93658.66;;;3.60;100.00
9721;BME280;4899;42.644;23.366;2023-02-04T12:25:49;93642.38;;;3.42;100.00
9721;BME280;4899;42.644;23.366;2023-02-04T12:28:15;93614.69;;;3.40;100.00
9721;BME280;4899;42.644;23.366;2023-02-04T12:30:41;93621.56;;;3.40;100.00
9721;BME280;4899;42.644;23.366;2023-02-04T12:33:06;93617.41;;;3.63;100.00
9721;BME280;4899;42.644;23.366;2023-02-04T12:35:33;93609.88;;;3.58;100.00
9721;BME280;4899;42.644;23.366;2023-02-04T12:37:58;93635.84;;;3.55;100.00
9721;BME280;4899;42.644;23.366;2023-02-04T12:40:24;93628.13;;;3.60;100.00
9721;BME280;4899;42.644;23.366;2023-02-04T12:42:50;93617.41;;;3.63;100.00
9721;BME280;4899;42.644;23.366;2023-02-04T12:45:16;93604.63;;;3.68;100.00
9721;BME280;4899;42.644;23.366;2023-02-04T12:47:42;93616.25;;;3.74;100.00
9721;BME280;4899;42.644;23.366;2023-02-04T12:50:09;93618.78;;;3.74;100.00
9721;BME280;4899;42.644;23.366;2023-02-04T12:52:37;93606.75;;;3.93;100.00
9721;BME280;4899;42.644;23.366;2023-02-04T12:55:04;93616.03;;;4.17;100.00
9721;BME280;4899;42.644;23.366;2023-02-04T12:57:31;93621.31;;;4.07;100.00
9721;BME280;4899;42.644;23.366;2023-02-04T12:59:57;93631.09;;;3.99;100.00
9721;BME280;4899;42.644;23.366;2023-02-04T13:02:27;93619.78;;;4.06;100.00
9721;BME280;4899;42.644;23.366;2023-02-04T13:04:53;93636.84;;;4.19;100.00
9721;BME280;4899;42.644;23.366;2023-02-04T13:07:19;93640.38;;;4.23;100.00
9721;BME280;4899;42.644;23.366;2023-02-04T13:09:46;93616.03;;;4.17;100.00
9721;BME280;4899;42.644;23.366;2023-02-04T13:12:12;93631.88;;;4.14;100.00
9721;BME280;4899;42.644;23.366;2023-02-04T13:14:39;93624.31;;;4.09;100.00
9721;BME280;4899;42.644;23.366;2023-02-04T13:17:05;93687.19;;;4.08;100.00
9721;BME280;4899;42.644;23.366;2023-02-04T13:19:31;93635.06;;;4.06;100.00
9721;BME280;4899;42.644;23.366;2023-02-04T13:21:57;93643.88;;;3.94;100.00
9721;BME280;4899;42.644;23.366;2023-02-04T13:24:23;93644.31;;;4.15;100.00
9721;BME280;4899;42.644;23.366;2023-02-04T13:26:49;93671.81;;;3.99;100.00
9721;BME280;4899;42.644;23.366;2023-02-04T13:29:14;93677.13;;;3.84;100.00
9721;BME280;4899;42.644;23.366;2023-02-04T13:31:41;93627.84;;;3.94;100.00